Ft. Stewart, GA

10:08 AM EDT on July 22, 2017 (GMT -0400)
Wright Army Air Field

Weather History for KLHW - February, 2014

Change the Weather History Date:

Wednesday, February 12, 2014

  Actual Average Record
Temperature  
Mean Temperature 36 °F -  
Max Temperature 38 °F 64 °F 82 °F (1965)
Min Temperature 33 °F 38 °F 21 °F (1981)
Degree Days  
Heating Degree Days 30    
Moisture  
Dew Point 35 °F    
Average Humidity 100    
Maximum Humidity 100    
Minimum Humidity 93    
Precipitation  
Precipitation 0.42 in - - ()
Sea Level Pressure  
Sea Level Pressure 29.99 in    
Wind  
Wind Speed 9 mph (NNE)    
Max Wind Speed 15 mph    
Max Gust Speed 23 mph    
Visibility 9 miles    
Events Rain    
Averages and records for this station are not official NWS values.
T = Trace of Precipitation, MM = Missing Value Source: NWS Daily Summary

Daily Weather History Graph

Daily Weather History Graph

Search for Another Location

Airport or City:

Trip Planner

Search our weather history database for the weather conditions in past years. The results will help you decide how hot, cold, wet, or windy it might be!

Date:

Astronomy

Feb. 12, 2014 Rise Set
Actual Time 7:11 AM EST 6:10 PM EST
Civil Twilight 6:46 AM EST 6:35 PM EST
Nautical Twilight 6:17 AM EST 7:04 PM EST
Astronomical Twilight 5:48 AM EST 7:32 PM EST
Moon 4:25 PM EST (2/12) 5:23 AM EST (2/12)
Length of Visible Light 11h 49m
Length of Day
10h 59m
Waxing Gibbous, 95% of the Moon is Illuminated
Feb 12
Waxing Gibbous
Feb 14
Full
Feb 22
Last Quarter
Mar 1
New
Mar 8
First Quarter

Hourly Weather History & Observations

Time (EST) Temp. Windchill Dew Point Humidity Pressure Visibility Wind Dir Wind Speed Gust Speed Precip Events Conditions
12:58 AM 38.1 °F 31.2 °F 36.9 °F 95% 30.21 in 10.0 mi NE 10.4 mph - N/A   Overcast
1:52 AM 37.4 °F 30.3 °F 37.4 °F 100% 30.18 in 10.0 mi NE 10.4 mph - N/A Rain Light Rain
1:58 AM 37.6 °F 30.0 °F 36.7 °F 97% 30.19 in 10.0 mi NE 11.5 mph - 0.00 in Rain Light Rain
2:16 AM 37.4 °F 29.8 °F 37.4 °F 100% 30.17 in 10.0 mi NE 11.5 mph - N/A   Overcast
2:58 AM 37.6 °F 31.6 °F 37.2 °F 99% 30.16 in 10.0 mi NNE 8.1 mph - 0.00 in   Overcast
2:59 AM 37.4 °F 32.1 °F 37.4 °F 100% 30.15 in 10.0 mi NNE 6.9 mph - N/A Rain Light Rain
3:17 AM 37.4 °F 32.1 °F 37.4 °F 100% 30.15 in 10.0 mi NNE 6.9 mph - N/A   Overcast
3:22 AM 37.4 °F 31.4 °F 37.4 °F 100% 30.16 in 10.0 mi NE 8.1 mph - N/A Rain Light Rain
3:58 AM 37.2 °F 33.6 °F 36.9 °F 99% 30.18 in 10.0 mi North 4.6 mph - 0.01 in Rain Rain
4:03 AM 37.4 °F 34.9 °F 37.4 °F 100% 30.16 in 9.0 mi North 3.5 mph - N/A Rain Light Rain
4:08 AM 37.4 °F 31.4 °F 37.4 °F 100% 30.15 in 9.0 mi NNE 8.1 mph - N/A Rain Light Rain
4:33 AM 37.4 °F 29.3 °F 37.4 °F 100% 30.13 in 10.0 mi NNE 12.7 mph - N/A Rain Light Rain
4:48 AM 37.4 °F 30.3 °F 37.4 °F 100% 30.13 in 9.0 mi NE 10.4 mph - N/A Rain Rain
4:53 AM 37.4 °F 29.8 °F 35.6 °F 93% 30.12 in 6.0 mi NE 11.5 mph - N/A Rain Rain
4:58 AM 36.7 °F 29.9 °F 36.5 °F 99% 30.14 in 6.0 mi NE 9.2 mph - 0.05 in Rain Heavy Rain
5:13 AM 35.6 °F 29.9 °F 35.6 °F 100% 30.14 in 9.0 mi NNE 6.9 mph - N/A Rain Rain
5:23 AM 35.6 °F 26.6 °F 35.6 °F 100% 30.13 in 10.0 mi North 13.8 mph 18.4 mph N/A Rain Rain
5:33 AM 35.6 °F 26.6 °F 35.6 °F 100% 30.12 in 10.0 mi NE 13.8 mph - N/A Rain Rain
5:48 AM 35.6 °F 27.1 °F 35.6 °F 100% 30.12 in 10.0 mi NNE 12.7 mph - N/A Rain Rain
5:58 AM 35.8 °F 26.5 °F 35.4 °F 99% 30.14 in 10.0 mi NNE 15.0 mph 23.0 mph 0.06 in Rain Rain
6:18 AM 35.6 °F 27.1 °F 35.6 °F 100% 30.12 in 9.0 mi NNE 12.7 mph 17.3 mph N/A Rain Rain
6:38 AM 33.8 °F 24.8 °F 33.8 °F 100% 30.12 in 9.0 mi NE 12.7 mph - N/A Rain Light Rain
6:43 AM 33.8 °F 26.4 °F 33.8 °F 100% 30.12 in 10.0 mi NE 9.2 mph 17.3 mph N/A Rain Light Rain
6:58 AM 34.5 °F 29.4 °F 34.3 °F 99% 30.13 in 10.0 mi NE 5.8 mph 17.3 mph 0.03 in Rain Light Rain
7:00 AM 33.8 °F 25.8 °F 33.8 °F 100% 30.12 in 10.0 mi NE 10.4 mph - N/A   Overcast
7:05 AM 33.8 °F 25.3 °F 33.8 °F 100% 30.12 in 10.0 mi NE 11.5 mph - N/A   Overcast
7:06 AM 33.8 °F 25.3 °F 33.8 °F 100% 30.13 in 10.0 mi NE 11.5 mph - N/A Rain Light Rain
7:18 AM 33.8 °F 27.7 °F 33.8 °F 100% 30.13 in 10.0 mi NE 6.9 mph - N/A   Overcast
7:42 AM 33.8 °F 28.6 °F 33.8 °F 100% 30.14 in 10.0 mi NE 5.8 mph - N/A Rain Light Rain
7:58 AM 34.2 °F 25.2 °F 34.0 °F 99% 30.14 in 10.0 mi NE 12.7 mph - 0.00 in Rain Light Rain
7:59 AM 33.8 °F 25.3 °F 33.8 °F 100% 30.13 in 10.0 mi NE 11.5 mph - N/A   Overcast
8:04 AM 33.8 °F 24.3 °F 33.8 °F 100% 30.12 in 10.0 mi NE 13.8 mph 21.9 mph N/A   Overcast
8:58 AM 34.0 °F 26.6 °F 33.8 °F 99% 30.12 in 10.0 mi NE 9.2 mph - 0.00 in   Overcast
9:03 AM 33.8 °F 25.8 °F 33.8 °F 100% 30.11 in 10.0 mi NE 10.4 mph - N/A   Overcast
9:38 AM 35.6 °F 28.0 °F 35.6 °F 100% 30.09 in 10.0 mi ENE 10.4 mph - N/A   Overcast
9:58 AM 35.2 °F 28.8 °F 35.1 °F 99% 30.13 in 10.0 mi NE 8.1 mph - N/A   Overcast
10:48 AM 35.6 °F 28.0 °F 35.6 °F 100% 30.14 in 10.0 mi NNW 10.4 mph - N/A Rain Light Rain
10:58 AM 35.4 °F 28.4 °F 35.2 °F 99% 30.14 in 9.0 mi North 9.2 mph - 0.02 in Rain Light Rain
11:08 AM 35.6 °F 27.5 °F 35.6 °F 100% 30.10 in 9.0 mi NNE 11.5 mph - N/A Rain Rain
11:53 AM 35.6 °F 28.0 °F 35.6 °F 100% 30.09 in 10.0 mi NNE 10.4 mph - N/A Rain Rain
11:58 AM 35.4 °F 29.0 °F 35.1 °F 99% 30.10 in 10.0 mi North 8.1 mph - 0.01 in Rain Rain
12:30 PM 35.6 °F 29.2 °F 35.6 °F 100% 30.06 in 10.0 mi North 8.1 mph - N/A   Overcast
12:50 PM 35.6 °F 29.2 °F 35.6 °F 100% 30.04 in 10.0 mi NNE 8.1 mph - N/A   Overcast
12:58 PM 35.6 °F 29.2 °F 35.4 °F 99% 30.04 in 10.0 mi North 8.1 mph - 0.01 in   Overcast
1:08 PM 35.6 °F 27.5 °F 35.6 °F 100% 30.02 in 10.0 mi North 11.5 mph - N/A   Overcast
1:58 PM 35.1 °F 28.6 °F 34.9 °F 99% 30.03 in 10.0 mi NNW 8.1 mph - N/A   Overcast
1:59 PM 35.6 °F 28.6 °F 35.6 °F 100% 30.00 in 10.0 mi NNW 9.2 mph - N/A Rain Light Rain
2:14 PM 33.8 °F 24.8 °F 33.8 °F 100% 29.97 in 2.0 mi NE 12.7 mph - N/A Rain Heavy Rain
2:19 PM 33.8 °F 24.8 °F 33.8 °F 100% 29.96 in 1.5 mi NE 12.7 mph - N/A Rain Heavy Rain
2:24 PM 33.8 °F 26.4 °F 33.8 °F 100% 29.95 in 2.0 mi NE 9.2 mph - N/A Rain Heavy Rain
2:29 PM 33.8 °F 25.8 °F 33.8 °F 100% 29.94 in 4.0 mi NE 10.4 mph - N/A Rain Rain
2:58 PM 35.1 °F 26.9 °F 35.1 °F 100% 29.93 in 10.0 mi NE 11.5 mph - 0.20 in Rain Light Rain
3:06 PM 35.6 °F 30.7 °F 35.6 °F 100% 29.93 in 10.0 mi NE 5.8 mph - N/A   Overcast
3:17 PM 35.6 °F 31.7 °F 35.6 °F 100% 29.94 in 10.0 mi ENE 4.6 mph - N/A   Overcast
3:57 PM 35.6 °F 30.7 °F 35.6 °F 100% 29.91 in 10.0 mi ENE 5.8 mph - N/A   Overcast
3:58 PM 35.6 °F 30.7 °F 35.6 °F 100% 29.92 in 10.0 mi ENE 5.8 mph - 0.01 in   Overcast
4:24 PM 35.6 °F 30.7 °F 35.6 °F 100% 29.91 in 10.0 mi NE 5.8 mph - N/A   Overcast
4:58 PM 35.8 °F 30.1 °F 35.8 °F 100% 29.90 in 9.0 mi NE 6.9 mph - 0.01 in Rain Light Rain
5:43 PM 35.6 °F 28.6 °F 35.6 °F 100% 29.86 in 10.0 mi NE 9.2 mph - N/A   Overcast
5:58 PM 35.6 °F 30.7 °F 35.6 °F 100% 29.86 in 10.0 mi NE 5.8 mph - 0.01 in   Overcast
6:18 PM 35.6 °F 29.2 °F 35.6 °F 100% 29.84 in 10.0 mi NNE 8.1 mph - N/A   Overcast
6:24 PM 35.6 °F 28.6 °F 35.6 °F 100% 29.84 in 10.0 mi North 9.2 mph - N/A Rain Light Rain
6:40 PM 35.6 °F 29.2 °F 35.6 °F 100% 29.82 in 10.0 mi East 8.1 mph - N/A   Overcast
6:58 PM 35.6 °F 29.9 °F 35.6 °F 100% 29.83 in 10.0 mi NE 6.9 mph - 0.00 in   Overcast
6:59 PM 35.6 °F 28.6 °F 35.6 °F 100% 29.81 in 10.0 mi NE 9.2 mph - N/A Rain Light Rain
7:09 PM 35.6 °F 30.7 °F 35.6 °F 100% 29.84 in 9.0 mi NNW 5.8 mph - N/A Rain Light Rain
7:10 PM 35.6 °F 29.2 °F 35.6 °F 100% 29.84 in 9.0 mi NW 8.1 mph - N/A   Overcast
7:15 PM 35.6 °F 30.7 °F 35.6 °F 100% 29.81 in 10.0 mi NNE 5.8 mph - N/A   Overcast
7:35 PM 35.6 °F 28.6 °F 35.6 °F 100% 29.81 in 9.0 mi North 9.2 mph - N/A   Overcast
7:45 PM 35.6 °F 29.2 °F 35.6 °F 100% 29.81 in 10.0 mi North 8.1 mph - N/A   Overcast
7:58 PM 35.4 °F 30.5 °F 35.4 °F 100% 29.82 in 10.0 mi North 5.8 mph - 0.00 in   Overcast
8:00 PM 35.6 °F 31.7 °F 35.6 °F 100% 29.81 in 10.0 mi NNW 4.6 mph - N/A Rain Light Rain
8:15 PM 35.6 °F 27.5 °F 35.6 °F 100% 29.74 in 8.0 mi ENE 11.5 mph - N/A Rain Light Rain
8:19 PM 35.6 °F 27.5 °F 35.6 °F 100% 29.75 in 7.0 mi NNE 11.5 mph - N/A   Overcast
8:29 PM 35.6 °F 29.2 °F 35.6 °F 100% 29.81 in 9.0 mi NW 8.1 mph - N/A   Overcast
8:31 PM 35.6 °F 30.7 °F 35.6 °F 100% 29.81 in 10.0 mi Variable 5.8 mph - N/A Rain Light Rain
8:43 PM 35.6 °F 29.2 °F 35.6 °F 100% 29.79 in 10.0 mi NNE 8.1 mph - N/A   Overcast
8:58 PM 35.1 °F 31.0 °F 35.1 °F 100% 29.79 in 10.0 mi NNE 4.6 mph - 0.00 in   Overcast
9:13 PM 35.6 °F 30.7 °F 35.6 °F 100% 29.77 in 9.0 mi NNE 5.8 mph - N/A   Overcast
9:43 PM 35.6 °F 29.9 °F 35.6 °F 100% 29.74 in 4.0 mi NNE 6.9 mph - N/A   Overcast
9:58 PM 35.1 °F 30.1 °F 35.1 °F 100% 29.75 in 3.0 mi NNE 5.8 mph - N/A   Overcast
10:08 PM 35.6 °F 30.7 °F 35.6 °F 100% 29.73 in 2.5 mi NNE 5.8 mph - N/A   Overcast
10:58 PM 35.1 °F 30.1 °F 35.1 °F 100% 29.75 in 3.0 mi North 5.8 mph - N/A   Overcast
11:36 PM 35.6 °F 29.9 °F 35.6 °F 100% 29.74 in 3.0 mi North 6.9 mph - N/A Rain Light Rain
11:58 PM 35.6 °F 29.2 °F 35.6 °F 100% 29.75 in 4.0 mi NNW 8.1 mph - 0.00 in Rain Light Rain